BAW490 EGLL-LXGB
Flight info
| Callsign | BAW490 |
|---|---|
| Flight time | 2h 28m |
| Altitude | 37000 |
| Route | GASGU N866 SAM M195 MARUK N621 LELNA DCT ERCOZ DCT NOVAN DCT DELOG DCT CRISA DCT VULPE DCT MAR N864 PIMOS |
| Aircraft | A320/M-SDE3FGIJ1KRWXY/SB1 |
Departure
| Time | 2026-04-30 11:36 |
|---|---|
| Airport | London Heathrow Airport (EGLL) |
Arrival
| Time | 2026-04-30 14:04 |
|---|---|
| Airport | Gibraltar Airport (LXGB) |
| Time | Latitude | Longitude | Altitude | Speed | Heading |
|---|---|---|---|---|---|
| 2026-04-30 10:44 | 51.47058 | -0.46068 | 91 ft | 0 kts | 56° |
| 2026-04-30 11:24 | 51.47047 | -0.46092 | 90 ft | 4 kts | 56° |
| 2026-04-30 11:24 | 51.47033 | -0.46126 | 88 ft | 2 kts | 56° |
| 2026-04-30 11:24 | 51.47019 | -0.46154 | 89 ft | 4 kts | 34° |
| 2026-04-30 11:25 | 51.47012 | -0.46174 | 91 ft | 4 kts | 326° |
| 2026-04-30 11:25 | 51.47034 | -0.46199 | 86 ft | 4 kts | 326° |
| 2026-04-30 11:25 | 51.47040 | -0.46205 | 88 ft | 0 kts | 326° |
| 2026-04-30 11:28 | 51.47048 | -0.46214 | 90 ft | 3 kts | 326° |
| 2026-04-30 11:28 | 51.47071 | -0.46239 | 88 ft | 5 kts | 326° |
| 2026-04-30 11:28 | 51.47108 | -0.46279 | 86 ft | 7 kts | 326° |
| 2026-04-30 11:29 | 51.47156 | -0.46332 | 87 ft | 9 kts | 325° |
| 2026-04-30 11:29 | 51.47216 | -0.46398 | 88 ft | 11 kts | 323° |
| 2026-04-30 11:29 | 51.47238 | -0.46670 | 86 ft | 14 kts | 269° |
| 2026-04-30 11:30 | 51.47162 | -0.46866 | 88 ft | 14 kts | 176° |
| 2026-04-30 11:30 | 51.47058 | -0.46862 | 86 ft | 16 kts | 181° |
| 2026-04-30 11:30 | 51.46939 | -0.46863 | 86 ft | 18 kts | 179° |
| 2026-04-30 11:31 | 51.46803 | -0.46859 | 86 ft | 21 kts | 176° |
| 2026-04-30 11:31 | 51.46685 | -0.46863 | 86 ft | 12 kts | 190° |
| 2026-04-30 11:31 | 51.46657 | -0.46980 | 88 ft | 13 kts | 270° |
| 2026-04-30 11:31 | 51.46657 | -0.47140 | 89 ft | 15 kts | 270° |
| 2026-04-30 11:32 | 51.46656 | -0.47321 | 89 ft | 17 kts | 269° |
| 2026-04-30 11:32 | 51.46655 | -0.47522 | 86 ft | 19 kts | 269° |
| 2026-04-30 11:32 | 51.46654 | -0.47743 | 86 ft | 21 kts | 270° |
| 2026-04-30 11:33 | 51.46651 | -0.48170 | 86 ft | 12 kts | 258° |
| 2026-04-30 11:33 | 51.46577 | -0.48214 | 87 ft | 13 kts | 178° |
| 2026-04-30 11:33 | 51.46507 | -0.48211 | 88 ft | 9 kts | 176° |
| 2026-04-30 11:33 | 51.46479 | -0.48149 | 88 ft | 0 kts | 89° |
| 2026-04-30 11:34 | 51.46479 | -0.48123 | 88 ft | 8 kts | 89° |
| 2026-04-30 11:35 | 51.46482 | -0.47661 | 86 ft | 75 kts | 90° |
| 2026-04-30 11:35 | 51.46484 | -0.46526 | 92 ft | 126 kts | 90° |
| 2026-04-30 11:35 | 51.46486 | -0.44896 | 240 ft | 155 kts | 91° |
| 2026-04-30 11:35 | 51.46489 | -0.43733 | 608 ft | 160 kts | 89° |
| 2026-04-30 11:36 | 51.46467 | -0.41902 | 1260 ft | 166 kts | 104° |
| 2026-04-30 11:36 | 51.45910 | -0.40178 | 1649 ft | 190 kts | 123° |
| 2026-04-30 11:36 | 51.45099 | -0.38345 | 1977 ft | 214 kts | 123° |
| 2026-04-30 11:36 | 51.44195 | -0.36289 | 2549 ft | 234 kts | 124° |
| 2026-04-30 11:37 | 51.43112 | -0.34301 | 3476 ft | 240 kts | 140° |
| 2026-04-30 11:37 | 51.41634 | -0.33062 | 4512 ft | 243 kts | 160° |
| 2026-04-30 11:37 | 51.39931 | -0.32809 | 5450 ft | 252 kts | 182° |
| 2026-04-30 11:37 | 51.38242 | -0.33686 | 6341 ft | 264 kts | 206° |
| 2026-04-30 11:38 | 51.36786 | -0.35562 | 7161 ft | 272 kts | 217° |
| 2026-04-30 11:38 | 51.35380 | -0.37619 | 7972 ft | 276 kts | 217° |
| 2026-04-30 11:38 | 51.33951 | -0.39708 | 8753 ft | 280 kts | 217° |
| 2026-04-30 11:38 | 51.32495 | -0.41829 | 9548 ft | 285 kts | 217° |
| 2026-04-30 11:39 | 51.31086 | -0.44115 | 10317 ft | 294 kts | 228° |
| 2026-04-30 11:39 | 51.30082 | -0.47019 | 11019 ft | 305 kts | 246° |
| 2026-04-30 11:39 | 51.29449 | -0.50381 | 11348 ft | 327 kts | 250° |
| 2026-04-30 11:39 | 51.28798 | -0.53987 | 11549 ft | 348 kts | 250° |
| 2026-04-30 11:40 | 51.28129 | -0.57715 | 12065 ft | 357 kts | 250° |
| 2026-04-30 11:40 | 51.27418 | -0.61557 | 12722 ft | 361 kts | 250° |
| 2026-04-30 11:40 | 51.26681 | -0.65405 | 13411 ft | 365 kts | 249° |
| 2026-04-30 11:40 | 51.25921 | -0.69289 | 14080 ft | 368 kts | 249° |
| 2026-04-30 11:41 | 51.25149 | -0.73200 | 14684 ft | 371 kts | 249° |
| 2026-04-30 11:41 | 51.24369 | -0.77153 | 15222 ft | 374 kts | 249° |
| 2026-04-30 11:41 | 51.23585 | -0.81128 | 15838 ft | 376 kts | 249° |
| 2026-04-30 11:41 | 51.22797 | -0.85125 | 16451 ft | 378 kts | 249° |
| 2026-04-30 11:42 | 51.22011 | -0.89143 | 17063 ft | 381 kts | 248° |
| 2026-04-30 11:42 | 51.21126 | -0.93114 | 17658 ft | 380 kts | 241° |
| 2026-04-30 11:42 | 51.19828 | -0.96755 | 18258 ft | 376 kts | 229° |
| 2026-04-30 11:42 | 51.18143 | -0.99908 | 18829 ft | 373 kts | 219° |
| 2026-04-30 11:43 | 51.16282 | -1.02738 | 19356 ft | 376 kts | 218° |
| 2026-04-30 11:43 | 51.14361 | -1.05671 | 19913 ft | 379 kts | 219° |
| 2026-04-30 11:43 | 51.12480 | -1.08560 | 20448 ft | 383 kts | 219° |
| 2026-04-30 11:43 | 51.10555 | -1.11520 | 20980 ft | 386 kts | 219° |
| 2026-04-30 11:44 | 51.08615 | -1.14502 | 21488 ft | 390 kts | 219° |
| 2026-04-30 11:44 | 51.06652 | -1.17515 | 21996 ft | 393 kts | 218° |
| 2026-04-30 11:44 | 51.04674 | -1.20544 | 22492 ft | 396 kts | 218° |
| 2026-04-30 11:44 | 51.02677 | -1.23596 | 22983 ft | 400 kts | 218° |
| 2026-04-30 11:45 | 51.00659 | -1.26667 | 23463 ft | 403 kts | 218° |
| 2026-04-30 11:45 | 50.98622 | -1.29767 | 23912 ft | 406 kts | 218° |
| 2026-04-30 11:45 | 50.96572 | -1.32886 | 24313 ft | 409 kts | 218° |
| 2026-04-30 11:45 | 50.94406 | -1.35669 | 24723 ft | 405 kts | 208° |
| 2026-04-30 11:46 | 50.92053 | -1.38129 | 25129 ft | 406 kts | 208° |
| 2026-04-30 11:46 | 50.89688 | -1.40590 | 25532 ft | 408 kts | 208° |
| 2026-04-30 11:46 | 50.87312 | -1.43064 | 25959 ft | 409 kts | 208° |
| 2026-04-30 11:46 | 50.84921 | -1.45556 | 26350 ft | 411 kts | 208° |
| 2026-04-30 11:47 | 50.82514 | -1.48058 | 26714 ft | 413 kts | 208° |
| 2026-04-30 11:47 | 50.80105 | -1.50554 | 27083 ft | 416 kts | 208° |
| 2026-04-30 11:47 | 50.77679 | -1.53068 | 27423 ft | 418 kts | 208° |
| 2026-04-30 11:47 | 50.75274 | -1.55558 | 27790 ft | 420 kts | 208° |
| 2026-04-30 11:48 | 50.72822 | -1.58089 | 28147 ft | 422 kts | 208° |
| 2026-04-30 11:48 | 50.70356 | -1.60625 | 28514 ft | 424 kts | 208° |
| 2026-04-30 11:48 | 50.67882 | -1.63168 | 28865 ft | 426 kts | 208° |
| 2026-04-30 11:48 | 50.65391 | -1.65727 | 29208 ft | 428 kts | 208° |
| 2026-04-30 11:49 | 50.62889 | -1.68300 | 29565 ft | 430 kts | 209° |
| 2026-04-30 11:49 | 50.60372 | -1.70884 | 29865 ft | 433 kts | 209° |
| 2026-04-30 11:49 | 50.57835 | -1.73485 | 30177 ft | 436 kts | 209° |
| 2026-04-30 11:49 | 50.55297 | -1.76081 | 30565 ft | 435 kts | 209° |
| 2026-04-30 11:50 | 50.52762 | -1.78673 | 30973 ft | 434 kts | 209° |
| 2026-04-30 11:50 | 50.50237 | -1.81256 | 31386 ft | 433 kts | 209° |
| 2026-04-30 11:50 | 50.47718 | -1.83835 | 31782 ft | 432 kts | 209° |
| 2026-04-30 11:50 | 50.45201 | -1.86408 | 32197 ft | 431 kts | 210° |
| 2026-04-30 11:51 | 50.42689 | -1.88968 | 32629 ft | 429 kts | 210° |
| 2026-04-30 11:51 | 50.40185 | -1.91511 | 33038 ft | 429 kts | 210° |
| 2026-04-30 11:51 | 50.37713 | -1.94014 | 33420 ft | 428 kts | 210° |
| 2026-04-30 11:51 | 50.35212 | -1.96542 | 33846 ft | 427 kts | 210° |
| 2026-04-30 11:52 | 50.32685 | -1.98984 | 34232 ft | 425 kts | 206° |
| 2026-04-30 11:52 | 50.30111 | -2.01262 | 34559 ft | 424 kts | 205° |
| 2026-04-30 11:52 | 50.27502 | -2.03428 | 34890 ft | 423 kts | 205° |
| 2026-04-30 11:52 | 50.24891 | -2.05536 | 35188 ft | 423 kts | 205° |
| 2026-04-30 11:53 | 50.22279 | -2.07645 | 35483 ft | 422 kts | 205° |
| 2026-04-30 11:53 | 50.19678 | -2.09776 | 35789 ft | 421 kts | 206° |
| 2026-04-30 11:53 | 50.17091 | -2.11916 | 36064 ft | 421 kts | 206° |
| 2026-04-30 11:53 | 50.14502 | -2.14084 | 36311 ft | 422 kts | 205° |
| 2026-04-30 11:54 | 50.11925 | -2.16270 | 36596 ft | 421 kts | 205° |
| 2026-04-30 11:54 | 50.09351 | -2.18462 | 36848 ft | 422 kts | 206° |
| 2026-04-30 11:54 | 50.06806 | -2.20615 | 37054 ft | 422 kts | 206° |
| 2026-04-30 11:54 | 50.04222 | -2.22783 | 37132 ft | 424 kts | 206° |
| 2026-04-30 11:55 | 49.98974 | -2.27152 | 37132 ft | 429 kts | 206° |
| 2026-04-30 11:55 | 49.93720 | -2.31525 | 37126 ft | 428 kts | 206° |
| 2026-04-30 11:56 | 49.88452 | -2.35909 | 37116 ft | 429 kts | 206° |
| 2026-04-30 11:56 | 49.83187 | -2.40286 | 37113 ft | 430 kts | 206° |
| 2026-04-30 11:57 | 49.77905 | -2.44657 | 37113 ft | 430 kts | 206° |
| 2026-04-30 11:57 | 49.72649 | -2.48991 | 37117 ft | 430 kts | 206° |
| 2026-04-30 11:58 | 49.67360 | -2.53351 | 37119 ft | 431 kts | 206° |
| 2026-04-30 11:58 | 49.62061 | -2.57696 | 37104 ft | 431 kts | 206° |
| 2026-04-30 11:59 | 49.56759 | -2.62035 | 37102 ft | 432 kts | 206° |
| 2026-04-30 11:59 | 49.51488 | -2.66349 | 37100 ft | 432 kts | 206° |
| 2026-04-30 12:00 | 49.46178 | -2.70680 | 37117 ft | 432 kts | 206° |
| 2026-04-30 12:00 | 49.40867 | -2.74997 | 37112 ft | 431 kts | 206° |
| 2026-04-30 12:01 | 49.35566 | -2.79299 | 37113 ft | 431 kts | 206° |
| 2026-04-30 12:01 | 49.30268 | -2.83582 | 37115 ft | 430 kts | 206° |
| 2026-04-30 12:02 | 49.24972 | -2.87852 | 37105 ft | 430 kts | 206° |
| 2026-04-30 12:02 | 49.19683 | -2.92108 | 37097 ft | 430 kts | 206° |
| 2026-04-30 12:03 | 49.11736 | -2.98492 | 37093 ft | 430 kts | 206° |
| 2026-04-30 12:04 | 49.06428 | -3.02741 | 37089 ft | 430 kts | 206° |
| 2026-04-30 12:04 | 49.01154 | -3.06948 | 37082 ft | 431 kts | 206° |
| 2026-04-30 12:05 | 48.95837 | -3.11181 | 37089 ft | 431 kts | 205° |
| 2026-04-30 12:05 | 48.90520 | -3.15399 | 37079 ft | 431 kts | 205° |
| 2026-04-30 12:06 | 48.85201 | -3.19612 | 37062 ft | 431 kts | 205° |
| 2026-04-30 12:06 | 48.79890 | -3.23817 | 37056 ft | 431 kts | 205° |
| 2026-04-30 12:07 | 48.74576 | -3.28014 | 37052 ft | 430 kts | 205° |
| 2026-04-30 12:07 | 48.69263 | -3.32190 | 37048 ft | 430 kts | 205° |
| 2026-04-30 12:08 | 48.63980 | -3.36325 | 37046 ft | 430 kts | 205° |
| 2026-04-30 12:08 | 48.58664 | -3.40487 | 37049 ft | 430 kts | 205° |
| 2026-04-30 12:09 | 48.53348 | -3.44651 | 37049 ft | 431 kts | 205° |
| 2026-04-30 12:09 | 48.48025 | -3.48802 | 37063 ft | 430 kts | 205° |
| 2026-04-30 12:10 | 48.42702 | -3.52938 | 37063 ft | 430 kts | 205° |
| 2026-04-30 12:10 | 48.37418 | -3.57029 | 37064 ft | 429 kts | 206° |
| 2026-04-30 12:11 | 48.31842 | -3.60037 | 37063 ft | 426 kts | 188° |
| 2026-04-30 12:11 | 48.25953 | -3.60602 | 37055 ft | 424 kts | 181° |
| 2026-04-30 12:12 | 48.20051 | -3.60889 | 37056 ft | 424 kts | 181° |
| 2026-04-30 12:12 | 48.14147 | -3.61192 | 37053 ft | 424 kts | 181° |
| 2026-04-30 12:13 | 48.08244 | -3.61498 | 37054 ft | 425 kts | 181° |
| 2026-04-30 12:13 | 48.02339 | -3.61790 | 37056 ft | 425 kts | 181° |
| 2026-04-30 12:14 | 47.96429 | -3.62072 | 37061 ft | 425 kts | 181° |
| 2026-04-30 12:14 | 47.90510 | -3.62364 | 37058 ft | 426 kts | 181° |
| 2026-04-30 12:15 | 47.84585 | -3.62656 | 37052 ft | 426 kts | 181° |
| 2026-04-30 12:15 | 47.78691 | -3.62949 | 37060 ft | 426 kts | 181° |
| 2026-04-30 12:16 | 47.72763 | -3.63243 | 37067 ft | 427 kts | 181° |
| 2026-04-30 12:16 | 47.66819 | -3.63536 | 37065 ft | 427 kts | 181° |
| 2026-04-30 12:17 | 47.57894 | -3.63966 | 37067 ft | 428 kts | 181° |
| 2026-04-30 12:17 | 47.51949 | -3.64259 | 37064 ft | 428 kts | 181° |
| 2026-04-30 12:18 | 47.45996 | -3.64549 | 37062 ft | 428 kts | 181° |
| 2026-04-30 12:18 | 47.40044 | -3.64833 | 37061 ft | 428 kts | 181° |
| 2026-04-30 12:19 | 47.34085 | -3.65113 | 37062 ft | 428 kts | 181° |
| 2026-04-30 12:19 | 47.28122 | -3.65409 | 37056 ft | 429 kts | 182° |
| 2026-04-30 12:20 | 47.22139 | -3.65694 | 37059 ft | 430 kts | 182° |
| 2026-04-30 12:20 | 47.16156 | -3.65976 | 37063 ft | 431 kts | 182° |
| 2026-04-30 12:21 | 47.10158 | -3.66260 | 37064 ft | 431 kts | 182° |
| 2026-04-30 12:21 | 47.04186 | -3.66548 | 37072 ft | 432 kts | 182° |
| 2026-04-30 12:22 | 46.98169 | -3.66837 | 37078 ft | 433 kts | 182° |
| 2026-04-30 12:22 | 46.92140 | -3.67122 | 37083 ft | 433 kts | 182° |
| 2026-04-30 12:23 | 46.86110 | -3.67409 | 37079 ft | 434 kts | 182° |
| 2026-04-30 12:23 | 46.80059 | -3.67698 | 37072 ft | 435 kts | 182° |
| 2026-04-30 12:24 | 46.74001 | -3.67980 | 37076 ft | 436 kts | 182° |
| 2026-04-30 12:24 | 46.67967 | -3.68260 | 37081 ft | 436 kts | 182° |
| 2026-04-30 12:25 | 46.61896 | -3.68539 | 37086 ft | 437 kts | 182° |
| 2026-04-30 12:25 | 46.55819 | -3.68823 | 37093 ft | 437 kts | 182° |
| 2026-04-30 12:26 | 46.49737 | -3.69105 | 37093 ft | 437 kts | 182° |
| 2026-04-30 12:26 | 46.44678 | -3.69347 | 37095 ft | 437 kts | 182° |
| 2026-04-30 12:27 | 46.38577 | -3.69620 | 37093 ft | 438 kts | 182° |
| 2026-04-30 12:27 | 46.32480 | -3.69901 | 37102 ft | 438 kts | 183° |
| 2026-04-30 12:28 | 46.26400 | -3.70552 | 37091 ft | 438 kts | 187° |
| 2026-04-30 12:28 | 46.20341 | -3.71595 | 37091 ft | 439 kts | 188° |
| 2026-04-30 12:29 | 46.14315 | -3.72619 | 37095 ft | 439 kts | 187° |
| 2026-04-30 12:29 | 46.08232 | -3.73536 | 37096 ft | 440 kts | 187° |
| 2026-04-30 12:30 | 46.02134 | -3.74402 | 37091 ft | 440 kts | 187° |
| 2026-04-30 12:30 | 45.96033 | -3.75294 | 37095 ft | 441 kts | 187° |
| 2026-04-30 12:31 | 45.89928 | -3.76202 | 37097 ft | 441 kts | 187° |
| 2026-04-30 12:31 | 45.83849 | -3.77105 | 37092 ft | 442 kts | 187° |
| 2026-04-30 12:32 | 45.77717 | -3.78005 | 37098 ft | 443 kts | 187° |
| 2026-04-30 12:32 | 45.71576 | -3.78911 | 37102 ft | 444 kts | 187° |
| 2026-04-30 12:33 | 45.65427 | -3.79812 | 37095 ft | 445 kts | 187° |
| 2026-04-30 12:33 | 45.59266 | -3.80715 | 37103 ft | 445 kts | 187° |
| 2026-04-30 12:34 | 45.53139 | -3.81612 | 37107 ft | 445 kts | 187° |
| 2026-04-30 12:34 | 45.46972 | -3.82510 | 37107 ft | 446 kts | 187° |
| 2026-04-30 12:35 | 45.40790 | -3.83397 | 37105 ft | 446 kts | 187° |
| 2026-04-30 12:35 | 45.34622 | -3.84283 | 37105 ft | 446 kts | 187° |
| 2026-04-30 12:36 | 45.28451 | -3.85177 | 37101 ft | 446 kts | 188° |
| 2026-04-30 12:36 | 45.22277 | -3.86075 | 37103 ft | 446 kts | 188° |
| 2026-04-30 12:37 | 45.16098 | -3.86959 | 37113 ft | 446 kts | 188° |
| 2026-04-30 12:37 | 45.09928 | -3.87844 | 37115 ft | 445 kts | 188° |
| 2026-04-30 12:38 | 45.03809 | -3.88728 | 37118 ft | 445 kts | 188° |
| 2026-04-30 12:38 | 44.97653 | -3.89606 | 37122 ft | 445 kts | 188° |
| 2026-04-30 12:39 | 44.91485 | -3.90483 | 37115 ft | 445 kts | 188° |
| 2026-04-30 12:39 | 44.85330 | -3.91365 | 37120 ft | 445 kts | 188° |
| 2026-04-30 12:40 | 44.79172 | -3.92230 | 37124 ft | 445 kts | 188° |
| 2026-04-30 12:40 | 44.73010 | -3.93103 | 37127 ft | 444 kts | 188° |
| 2026-04-30 12:41 | 44.66861 | -3.93983 | 37127 ft | 444 kts | 188° |
| 2026-04-30 12:41 | 44.60717 | -3.94852 | 37128 ft | 444 kts | 188° |
| 2026-04-30 12:42 | 44.54571 | -3.95717 | 37117 ft | 444 kts | 188° |
| 2026-04-30 12:42 | 44.48436 | -3.96580 | 37121 ft | 443 kts | 189° |
| 2026-04-30 12:43 | 44.42302 | -3.97434 | 37127 ft | 443 kts | 189° |
| 2026-04-30 12:43 | 44.36205 | -3.98286 | 37126 ft | 443 kts | 189° |
| 2026-04-30 12:44 | 44.30073 | -3.99130 | 37124 ft | 443 kts | 188° |
| 2026-04-30 12:44 | 44.23928 | -3.99836 | 37127 ft | 443 kts | 188° |
| 2026-04-30 12:45 | 44.17775 | -4.00489 | 37125 ft | 443 kts | 188° |
| 2026-04-30 12:45 | 44.11633 | -4.01172 | 37116 ft | 442 kts | 188° |
| 2026-04-30 12:46 | 44.05501 | -4.01879 | 37123 ft | 442 kts | 188° |
| 2026-04-30 12:46 | 43.99374 | -4.02590 | 37125 ft | 442 kts | 188° |
| 2026-04-30 12:47 | 43.93237 | -4.03288 | 37108 ft | 442 kts | 189° |
| 2026-04-30 12:47 | 43.87108 | -4.03980 | 37122 ft | 442 kts | 189° |
| 2026-04-30 12:48 | 43.80981 | -4.04666 | 37125 ft | 441 kts | 189° |
| 2026-04-30 12:48 | 43.74864 | -4.05354 | 37121 ft | 441 kts | 189° |
| 2026-04-30 12:49 | 43.68746 | -4.06049 | 37132 ft | 441 kts | 189° |
| 2026-04-30 12:49 | 43.62675 | -4.06736 | 37129 ft | 441 kts | 189° |
| 2026-04-30 12:50 | 43.56559 | -4.07414 | 37124 ft | 440 kts | 189° |
| 2026-04-30 12:50 | 43.50457 | -4.08095 | 37106 ft | 440 kts | 189° |
| 2026-04-30 12:51 | 43.44363 | -4.08785 | 37110 ft | 439 kts | 189° |
| 2026-04-30 12:51 | 43.38273 | -4.09471 | 37109 ft | 439 kts | 189° |
| 2026-04-30 12:52 | 43.32183 | -4.10138 | 37107 ft | 439 kts | 189° |
| 2026-04-30 12:52 | 43.26099 | -4.10810 | 37113 ft | 438 kts | 189° |
| 2026-04-30 12:53 | 43.20022 | -4.11486 | 37111 ft | 438 kts | 189° |
| 2026-04-30 12:53 | 43.13959 | -4.12154 | 37099 ft | 437 kts | 189° |
| 2026-04-30 12:54 | 43.07934 | -4.12824 | 37103 ft | 437 kts | 189° |
| 2026-04-30 12:54 | 43.01876 | -4.13492 | 37105 ft | 437 kts | 189° |
| 2026-04-30 12:55 | 42.95816 | -4.14160 | 37113 ft | 437 kts | 189° |
| 2026-04-30 12:55 | 42.89763 | -4.14824 | 37108 ft | 436 kts | 189° |
| 2026-04-30 12:56 | 42.83715 | -4.15482 | 37109 ft | 436 kts | 189° |
| 2026-04-30 12:56 | 42.77671 | -4.16148 | 37109 ft | 435 kts | 189° |
| 2026-04-30 12:57 | 42.71631 | -4.16809 | 37110 ft | 435 kts | 189° |
| 2026-04-30 12:57 | 42.65587 | -4.17460 | 37118 ft | 436 kts | 189° |
| 2026-04-30 12:58 | 42.59585 | -4.18105 | 37124 ft | 435 kts | 189° |
| 2026-04-30 12:58 | 42.53547 | -4.18761 | 37102 ft | 435 kts | 189° |
| 2026-04-30 12:59 | 42.47523 | -4.19416 | 37120 ft | 434 kts | 189° |
| 2026-04-30 12:59 | 42.41511 | -4.20070 | 37130 ft | 433 kts | 189° |
| 2026-04-30 13:00 | 42.35495 | -4.20713 | 37134 ft | 433 kts | 189° |
| 2026-04-30 13:00 | 42.29499 | -4.21352 | 37130 ft | 432 kts | 189° |
| 2026-04-30 13:01 | 42.23510 | -4.21999 | 37130 ft | 432 kts | 189° |
| 2026-04-30 13:01 | 42.17520 | -4.22647 | 37133 ft | 431 kts | 189° |
| 2026-04-30 13:02 | 42.11541 | -4.23293 | 37108 ft | 431 kts | 189° |
| 2026-04-30 13:02 | 42.05568 | -4.23936 | 37122 ft | 430 kts | 189° |
| 2026-04-30 13:03 | 41.99596 | -4.24566 | 37127 ft | 430 kts | 189° |
| 2026-04-30 13:03 | 41.93634 | -4.25189 | 37125 ft | 430 kts | 189° |
| 2026-04-30 13:04 | 41.87668 | -4.25816 | 37118 ft | 429 kts | 189° |
| 2026-04-30 13:04 | 41.81750 | -4.26453 | 37121 ft | 429 kts | 189° |
| 2026-04-30 13:05 | 41.75796 | -4.27090 | 37127 ft | 429 kts | 189° |
| 2026-04-30 13:06 | 41.66866 | -4.28031 | 37113 ft | 429 kts | 188° |
| 2026-04-30 13:06 | 41.60923 | -4.28655 | 37119 ft | 428 kts | 188° |
| 2026-04-30 13:07 | 41.54980 | -4.29280 | 37125 ft | 428 kts | 188° |
| 2026-04-30 13:07 | 41.49041 | -4.29897 | 37125 ft | 428 kts | 188° |
| 2026-04-30 13:08 | 41.43150 | -4.30517 | 37115 ft | 427 kts | 188° |
| 2026-04-30 13:08 | 41.37229 | -4.31132 | 37118 ft | 427 kts | 188° |
| 2026-04-30 13:09 | 41.31312 | -4.31750 | 37119 ft | 426 kts | 188° |
| 2026-04-30 13:09 | 41.25399 | -4.32369 | 37113 ft | 426 kts | 188° |
| 2026-04-30 13:10 | 41.19489 | -4.32983 | 37115 ft | 425 kts | 188° |
| 2026-04-30 13:10 | 41.13589 | -4.33594 | 37116 ft | 425 kts | 188° |
| 2026-04-30 13:11 | 41.07698 | -4.34211 | 37112 ft | 425 kts | 188° |
| 2026-04-30 13:11 | 41.01846 | -4.34823 | 37106 ft | 424 kts | 187° |
| 2026-04-30 13:12 | 40.95964 | -4.35430 | 37113 ft | 424 kts | 187° |
| 2026-04-30 13:12 | 40.90087 | -4.36027 | 37116 ft | 423 kts | 187° |
| 2026-04-30 13:13 | 40.81277 | -4.36923 | 37111 ft | 423 kts | 187° |
| 2026-04-30 13:14 | 40.72485 | -4.37820 | 37116 ft | 422 kts | 187° |
| 2026-04-30 13:14 | 40.63699 | -4.38724 | 37118 ft | 422 kts | 187° |
| 2026-04-30 13:15 | 40.54913 | -4.39631 | 37117 ft | 422 kts | 187° |
| 2026-04-30 13:16 | 40.49054 | -4.40217 | 37115 ft | 422 kts | 187° |
| 2026-04-30 13:16 | 40.43237 | -4.40812 | 37113 ft | 422 kts | 187° |
| 2026-04-30 13:17 | 40.34455 | -4.41703 | 37108 ft | 421 kts | 187° |
| 2026-04-30 13:18 | 40.25688 | -4.42590 | 37110 ft | 421 kts | 187° |
| 2026-04-30 13:18 | 40.16919 | -4.43478 | 37109 ft | 421 kts | 187° |
| 2026-04-30 13:19 | 40.12070 | -4.43963 | 37102 ft | 420 kts | 187° |
| 2026-04-30 13:19 | 40.06231 | -4.44547 | 37105 ft | 420 kts | 187° |
| 2026-04-30 13:20 | 39.99451 | -4.45225 | 37105 ft | 420 kts | 187° |
| 2026-04-30 13:20 | 39.94564 | -4.45718 | 37106 ft | 420 kts | 187° |
| 2026-04-30 13:21 | 39.88732 | -4.46305 | 37099 ft | 420 kts | 186° |
| 2026-04-30 13:22 | 39.79977 | -4.47166 | 37103 ft | 420 kts | 186° |
| 2026-04-30 13:22 | 39.71237 | -4.48031 | 37098 ft | 420 kts | 186° |
| 2026-04-30 13:23 | 39.62539 | -4.48911 | 37102 ft | 419 kts | 186° |
| 2026-04-30 13:24 | 39.50898 | -4.50056 | 37094 ft | 419 kts | 186° |
| 2026-04-30 13:25 | 39.39267 | -4.51197 | 37096 ft | 419 kts | 186° |
| 2026-04-30 13:26 | 39.24738 | -4.52618 | 37089 ft | 418 kts | 186° |
| 2026-04-30 13:28 | 39.10233 | -4.54043 | 37082 ft | 418 kts | 186° |
| 2026-04-30 13:28 | 39.01522 | -4.54899 | 37077 ft | 418 kts | 185° |
| 2026-04-30 13:29 | 38.89970 | -4.56252 | 37079 ft | 417 kts | 189° |
| 2026-04-30 13:31 | 38.75676 | -4.59464 | 37084 ft | 418 kts | 190° |
| 2026-04-30 13:32 | 38.61322 | -4.62416 | 37080 ft | 418 kts | 190° |
| 2026-04-30 13:33 | 38.49818 | -4.64797 | 37081 ft | 419 kts | 190° |
| 2026-04-30 13:34 | 38.41191 | -4.66571 | 37085 ft | 419 kts | 190° |
| 2026-04-30 13:35 | 38.29732 | -4.68939 | 37083 ft | 418 kts | 190° |
| 2026-04-30 13:36 | 38.18240 | -4.71287 | 37077 ft | 418 kts | 190° |
| 2026-04-30 13:36 | 38.09613 | -4.73051 | 37078 ft | 418 kts | 190° |
| 2026-04-30 13:37 | 38.00999 | -4.74803 | 37074 ft | 418 kts | 190° |
| 2026-04-30 13:38 | 37.92384 | -4.76561 | 37070 ft | 418 kts | 190° |
| 2026-04-30 13:39 | 37.80943 | -4.78872 | 37068 ft | 417 kts | 190° |
| 2026-04-30 13:40 | 37.72353 | -4.80615 | 37074 ft | 416 kts | 190° |
| 2026-04-30 13:40 | 37.66639 | -4.81770 | 36931 ft | 414 kts | 190° |
| 2026-04-30 13:40 | 37.63791 | -4.82345 | 36321 ft | 414 kts | 190° |
| 2026-04-30 13:41 | 37.60945 | -4.82918 | 35672 ft | 415 kts | 191° |
| 2026-04-30 13:41 | 37.58092 | -4.83492 | 35048 ft | 414 kts | 191° |
| 2026-04-30 13:41 | 37.55249 | -4.84062 | 34425 ft | 414 kts | 191° |
| 2026-04-30 13:41 | 37.52401 | -4.84632 | 33768 ft | 414 kts | 191° |
| 2026-04-30 13:42 | 37.49567 | -4.85198 | 33235 ft | 410 kts | 191° |
| 2026-04-30 13:42 | 37.46756 | -4.85760 | 32690 ft | 407 kts | 191° |
| 2026-04-30 13:42 | 37.41233 | -4.86870 | 31630 ft | 401 kts | 191° |
| 2026-04-30 13:43 | 37.38484 | -4.87425 | 31094 ft | 399 kts | 191° |
| 2026-04-30 13:43 | 37.35757 | -4.87974 | 30577 ft | 396 kts | 191° |
| 2026-04-30 13:43 | 37.33041 | -4.88520 | 30059 ft | 393 kts | 191° |
| 2026-04-30 13:43 | 37.30343 | -4.89062 | 29478 ft | 391 kts | 191° |
| 2026-04-30 13:44 | 37.27665 | -4.89597 | 28926 ft | 388 kts | 191° |
| 2026-04-30 13:44 | 37.25009 | -4.90123 | 28395 ft | 385 kts | 191° |
| 2026-04-30 13:44 | 37.22364 | -4.90647 | 27881 ft | 383 kts | 191° |
| 2026-04-30 13:44 | 37.19742 | -4.91168 | 27398 ft | 380 kts | 191° |
| 2026-04-30 13:45 | 37.14546 | -4.92197 | 26453 ft | 376 kts | 191° |
| 2026-04-30 13:45 | 37.11966 | -4.92708 | 26009 ft | 374 kts | 191° |
| 2026-04-30 13:45 | 37.09399 | -4.93218 | 25595 ft | 371 kts | 191° |
| 2026-04-30 13:46 | 37.06851 | -4.93724 | 25184 ft | 370 kts | 190° |
| 2026-04-30 13:46 | 37.04283 | -4.93935 | 24788 ft | 370 kts | 181° |
| 2026-04-30 13:46 | 37.01748 | -4.93808 | 24392 ft | 369 kts | 180° |
| 2026-04-30 13:46 | 36.99188 | -4.93673 | 23995 ft | 367 kts | 180° |
| 2026-04-30 13:47 | 36.96645 | -4.93537 | 23588 ft | 365 kts | 180° |
| 2026-04-30 13:47 | 36.94109 | -4.93401 | 23104 ft | 363 kts | 180° |
| 2026-04-30 13:47 | 36.91586 | -4.93268 | 22628 ft | 361 kts | 180° |
| 2026-04-30 13:47 | 36.89085 | -4.93138 | 22156 ft | 359 kts | 180° |
| 2026-04-30 13:48 | 36.86596 | -4.93011 | 21660 ft | 357 kts | 180° |
| 2026-04-30 13:48 | 36.84113 | -4.92885 | 21176 ft | 355 kts | 180° |
| 2026-04-30 13:48 | 36.81653 | -4.92761 | 20710 ft | 353 kts | 179° |
| 2026-04-30 13:48 | 36.79206 | -4.92636 | 20258 ft | 351 kts | 179° |
| 2026-04-30 13:49 | 36.76776 | -4.92512 | 19812 ft | 348 kts | 179° |
| 2026-04-30 13:49 | 36.74361 | -4.92391 | 19377 ft | 346 kts | 179° |
| 2026-04-30 13:49 | 36.71993 | -4.92273 | 18954 ft | 344 kts | 179° |
| 2026-04-30 13:49 | 36.69607 | -4.92151 | 18523 ft | 342 kts | 178° |
| 2026-04-30 13:50 | 36.67238 | -4.92028 | 18079 ft | 340 kts | 178° |
| 2026-04-30 13:50 | 36.62540 | -4.91784 | 17070 ft | 336 kts | 178° |
| 2026-04-30 13:50 | 36.60203 | -4.91664 | 16558 ft | 335 kts | 178° |
| 2026-04-30 13:51 | 36.57893 | -4.91547 | 16047 ft | 330 kts | 178° |
| 2026-04-30 13:51 | 36.55617 | -4.91433 | 15555 ft | 324 kts | 179° |
| 2026-04-30 13:51 | 36.53377 | -4.91322 | 15072 ft | 320 kts | 179° |
| 2026-04-30 13:51 | 36.51193 | -4.91210 | 14597 ft | 315 kts | 179° |
| 2026-04-30 13:52 | 36.49042 | -4.91097 | 14114 ft | 304 kts | 179° |
| 2026-04-30 13:52 | 36.46965 | -4.90988 | 13621 ft | 293 kts | 179° |
| 2026-04-30 13:52 | 36.44946 | -4.90885 | 13105 ft | 287 kts | 179° |
| 2026-04-30 13:52 | 36.42975 | -4.90786 | 12593 ft | 280 kts | 179° |
| 2026-04-30 13:53 | 36.41048 | -4.90688 | 12087 ft | 273 kts | 179° |
| 2026-04-30 13:53 | 36.39171 | -4.90592 | 11583 ft | 267 kts | 179° |
| 2026-04-30 13:53 | 36.37329 | -4.90498 | 11110 ft | 263 kts | 179° |
| 2026-04-30 13:53 | 36.35515 | -4.90405 | 10632 ft | 259 kts | 179° |
| 2026-04-30 13:54 | 36.33725 | -4.90314 | 10160 ft | 255 kts | 179° |
| 2026-04-30 13:54 | 36.31959 | -4.90222 | 9662 ft | 252 kts | 179° |
| 2026-04-30 13:54 | 36.30212 | -4.90131 | 9144 ft | 250 kts | 179° |
| 2026-04-30 13:54 | 36.28486 | -4.90041 | 8636 ft | 247 kts | 178° |
| 2026-04-30 13:55 | 36.26775 | -4.89953 | 8134 ft | 245 kts | 178° |
| 2026-04-30 13:55 | 36.25090 | -4.89867 | 7781 ft | 237 kts | 178° |
| 2026-04-30 13:55 | 36.23505 | -4.89787 | 7538 ft | 225 kts | 179° |
| 2026-04-30 13:55 | 36.21949 | -4.89709 | 7291 ft | 219 kts | 178° |
| 2026-04-30 13:56 | 36.20454 | -4.89633 | 7054 ft | 218 kts | 179° |
| 2026-04-30 13:56 | 36.18922 | -4.89595 | 6818 ft | 218 kts | 187° |
| 2026-04-30 13:56 | 36.17567 | -4.90275 | 6577 ft | 214 kts | 221° |
| 2026-04-30 13:56 | 36.16775 | -4.91805 | 6331 ft | 215 kts | 256° |
| 2026-04-30 13:57 | 36.16630 | -4.93660 | 6075 ft | 218 kts | 265° |
| 2026-04-30 13:57 | 36.16560 | -4.95534 | 5823 ft | 218 kts | 266° |
| 2026-04-30 13:57 | 36.16494 | -4.97429 | 5445 ft | 222 kts | 266° |
| 2026-04-30 13:57 | 36.16427 | -4.99348 | 5073 ft | 224 kts | 266° |
| 2026-04-30 13:58 | 36.16361 | -5.01268 | 4704 ft | 223 kts | 266° |
| 2026-04-30 13:58 | 36.16221 | -5.05117 | 3952 ft | 222 kts | 266° |
| 2026-04-30 13:58 | 36.16150 | -5.07027 | 3602 ft | 221 kts | 267° |
| 2026-04-30 13:59 | 36.16080 | -5.08886 | 3432 ft | 213 kts | 267° |
| 2026-04-30 13:59 | 36.16012 | -5.10696 | 3255 ft | 207 kts | 267° |
| 2026-04-30 13:59 | 36.15946 | -5.12452 | 3074 ft | 201 kts | 267° |
| 2026-04-30 13:59 | 36.15881 | -5.14136 | 2892 ft | 196 kts | 267° |
| 2026-04-30 14:00 | 36.15815 | -5.15803 | 2707 ft | 190 kts | 267° |
| 2026-04-30 14:00 | 36.15689 | -5.18996 | 2246 ft | 182 kts | 267° |
| 2026-04-30 14:00 | 36.15631 | -5.20549 | 2023 ft | 178 kts | 267° |
| 2026-04-30 14:01 | 36.15576 | -5.22027 | 1792 ft | 165 kts | 267° |
| 2026-04-30 14:01 | 36.15528 | -5.23370 | 1610 ft | 148 kts | 267° |
| 2026-04-30 14:01 | 36.15485 | -5.24603 | 1521 ft | 141 kts | 268° |
| 2026-04-30 14:01 | 36.15447 | -5.25802 | 1230 ft | 137 kts | 268° |
| 2026-04-30 14:02 | 36.15420 | -5.26975 | 935 ft | 135 kts | 268° |
| 2026-04-30 14:02 | 36.15405 | -5.28141 | 781 ft | 136 kts | 268° |
| 2026-04-30 14:02 | 36.15376 | -5.29315 | 696 ft | 137 kts | 266° |
| 2026-04-30 14:02 | 36.15304 | -5.30487 | 629 ft | 137 kts | 264° |
| 2026-04-30 14:03 | 36.15244 | -5.31658 | 460 ft | 136 kts | 265° |
| 2026-04-30 14:03 | 36.15203 | -5.32819 | 247 ft | 135 kts | 264° |
| 2026-04-30 14:03 | 36.15153 | -5.33972 | 65 ft | 134 kts | 264° |
| 2026-04-30 14:03 | 36.15112 | -5.35035 | 19 ft | 101 kts | 268° |
| 2026-04-30 14:04 | 36.15093 | -5.35551 | 18 ft | 34 kts | 267° |
| 2026-04-30 14:04 | 36.15085 | -5.35801 | 17 ft | 19 kts | 268° |
| 2026-04-30 14:04 | 36.15053 | -5.35909 | 17 ft | 11 kts | 263° |
| 2026-04-30 14:04 | 36.15086 | -5.35893 | 17 ft | 10 kts | 99° |
| 2026-04-30 14:05 | 36.15087 | -5.35793 | 17 ft | 14 kts | 88° |
| 2026-04-30 14:05 | 36.15093 | -5.35637 | 17 ft | 22 kts | 87° |
| 2026-04-30 14:05 | 36.15100 | -5.35431 | 21 ft | 25 kts | 88° |
| 2026-04-30 14:05 | 36.15108 | -5.35203 | 19 ft | 28 kts | 87° |
| 2026-04-30 14:06 | 36.15117 | -5.34952 | 19 ft | 31 kts | 88° |
| 2026-04-30 14:06 | 36.15132 | -5.34525 | 16 ft | 26 kts | 87° |
| 2026-04-30 14:07 | 36.15184 | -5.34232 | 18 ft | 12 kts | 357° |
| 2026-04-30 14:07 | 36.15239 | -5.34257 | 18 ft | 7 kts | 297° |
| 2026-04-30 14:07 | 36.15237 | -5.34330 | 18 ft | 9 kts | 266° |
| 2026-04-30 14:08 | 36.15237 | -5.34343 | 18 ft | 0 kts | 267° |
| 2026-04-30 14:08 | 36.15237 | -5.34346 | 18 ft | 2 kts | 267° |
| 2026-04-30 14:08 | 36.15235 | -5.34394 | 18 ft | 2 kts | 267° |
| 2026-04-30 14:09 | 36.15234 | -5.34408 | 18 ft | 5 kts | 267° |
| 2026-04-30 14:09 | 36.15232 | -5.34466 | 18 ft | 8 kts | 267° |
| 2026-04-30 14:09 | 36.15228 | -5.34602 | 18 ft | 7 kts | 268° |
| 2026-04-30 14:10 | 36.15252 | -5.34626 | 19 ft | 3 kts | 356° |
| 2026-04-30 14:10 | 36.15281 | -5.34627 | 18 ft | 3 kts | 357° |
| 2026-04-30 14:10 | 36.15296 | -5.34628 | 18 ft | 2 kts | 357° |
| 2026-04-30 14:10 | 36.15302 | -5.34629 | 18 ft | 0 kts | 357° |